sensor_id;sensor_type;location;lat;lon;timestamp;temperature;humidity
11736;DHT22;5924;51.398;7.088;2023-05-14T00:01:24;8.80;99.90
11736;DHT22;5924;51.398;7.088;2023-05-14T00:03:50;8.80;99.90
11736;DHT22;5924;51.398;7.088;2023-05-14T00:06:16;8.80;99.90
11736;DHT22;5924;51.398;7.088;2023-05-14T00:08:41;8.70;99.90
11736;DHT22;5924;51.398;7.088;2023-05-14T00:11:07;8.70;99.90
11736;DHT22;5924;51.398;7.088;2023-05-14T00:13:35;8.70;99.90
11736;DHT22;5924;51.398;7.088;2023-05-14T00:16:01;8.60;99.90
11736;DHT22;5924;51.398;7.088;2023-05-14T00:18:27;8.60;99.90
11736;DHT22;5924;51.398;7.088;2023-05-14T00:20:52;8.60;99.90
11736;DHT22;5924;51.398;7.088;2023-05-14T00:23:22;8.60;99.90
11736;DHT22;5924;51.398;7.088;2023-05-14T00:25:48;8.60;99.90
11736;DHT22;5924;51.398;7.088;2023-05-14T00:28:14;8.50;99.90
11736;DHT22;5924;51.398;7.088;2023-05-14T00:30:40;8.50;99.90
11736;DHT22;5924;51.398;7.088;2023-05-14T00:33:06;8.40;99.90
11736;DHT22;5924;51.398;7.088;2023-05-14T00:35:31;8.40;99.90
11736;DHT22;5924;51.398;7.088;2023-05-14T00:38:00;8.40;99.90
11736;DHT22;5924;51.398;7.088;2023-05-14T00:40:26;8.30;99.90
11736;DHT22;5924;51.398;7.088;2023-05-14T00:42:53;8.30;99.90
11736;DHT22;5924;51.398;7.088;2023-05-14T00:45:18;8.20;99.90
11736;DHT22;5924;51.398;7.088;2023-05-14T00:47:44;8.20;99.90
11736;DHT22;5924;51.398;7.088;2023-05-14T00:50:11;8.20;99.90
11736;DHT22;5924;51.398;7.088;2023-05-14T00:52:38;8.20;99.90
11736;DHT22;5924;51.398;7.088;2023-05-14T00:55:05;8.20;99.90
11736;DHT22;5924;51.398;7.088;2023-05-14T00:57:31;8.10;99.90
11736;DHT22;5924;51.398;7.088;2023-05-14T00:59:57;8.10;99.90
11736;DHT22;5924;51.398;7.088;2023-05-14T01:02:23;8.00;99.90
11736;DHT22;5924;51.398;7.088;2023-05-14T01:04:49;8.10;99.90
11736;DHT22;5924;51.398;7.088;2023-05-14T01:12:55;8.00;99.90
11736;DHT22;5924;51.398;7.088;2023-05-14T01:15:32;7.90;99.90
11736;DHT22;5924;51.398;7.088;2023-05-14T01:18:04;7.90;99.90
11736;DHT22;5924;51.398;7.088;2023-05-14T01:20:31;7.90;99.90
11736;DHT22;5924;51.398;7.088;2023-05-14T01:22:57;7.80;99.90
11736;DHT22;5924;51.398;7.088;2023-05-14T01:25:22;7.80;99.90
11736;DHT22;5924;51.398;7.088;2023-05-14T01:30:38;7.80;99.90
11736;DHT22;5924;51.398;7.088;2023-05-14T01:33:13;7.80;99.90
11736;DHT22;5924;51.398;7.088;2023-05-14T01:35:39;7.80;99.90
11736;DHT22;5924;51.398;7.088;2023-05-14T01:38:10;7.70;99.90
11736;DHT22;5924;51.398;7.088;2023-05-14T01:40:37;7.70;99.90
11736;DHT22;5924;51.398;7.088;2023-05-14T01:43:03;7.70;99.90
11736;DHT22;5924;51.398;7.088;2023-05-14T01:45:29;7.70;99.90
11736;DHT22;5924;51.398;7.088;2023-05-14T01:47:55;7.70;99.90
11736;DHT22;5924;51.398;7.088;2023-05-14T01:50:21;7.60;99.90
11736;DHT22;5924;51.398;7.088;2023-05-14T01:52:47;7.60;99.90
11736;DHT22;5924;51.398;7.088;2023-05-14T01:55:13;7.60;99.90
11736;DHT22;5924;51.398;7.088;2023-05-14T01:57:38;7.60;99.90
11736;DHT22;5924;51.398;7.088;2023-05-14T02:00:04;7.60;99.90
11736;DHT22;5924;51.398;7.088;2023-05-14T02:02:30;7.60;99.90
11736;DHT22;5924;51.398;7.088;2023-05-14T02:04:56;7.50;99.90
11736;DHT22;5924;51.398;7.088;2023-05-14T02:07:22;7.50;99.90
11736;DHT22;5924;51.398;7.088;2023-05-14T02:09:47;7.40;99.90
11736;DHT22;5924;51.398;7.088;2023-05-14T02:12:13;7.40;99.90
11736;DHT22;5924;51.398;7.088;2023-05-14T02:14:38;7.40;99.90
11736;DHT22;5924;51.398;7.088;2023-05-14T02:17:04;7.50;99.90
11736;DHT22;5924;51.398;7.088;2023-05-14T02:19:30;7.50;99.90
11736;DHT22;5924;51.398;7.088;2023-05-14T02:21:57;7.40;99.90
11736;DHT22;5924;51.398;7.088;2023-05-14T02:24:22;7.40;99.90
11736;DHT22;5924;51.398;7.088;2023-05-14T02:26:48;7.40;99.90
11736;DHT22;5924;51.398;7.088;2023-05-14T02:29:14;7.40;99.90
11736;DHT22;5924;51.398;7.088;2023-05-14T02:31:39;7.40;99.90
11736;DHT22;5924;51.398;7.088;2023-05-14T02:34:05;7.30;99.90
11736;DHT22;5924;51.398;7.088;2023-05-14T02:36:31;5.40;99.90
11736;DHT22;5924;51.398;7.088;2023-05-14T02:38:58;7.30;99.90
11736;DHT22;5924;51.398;7.088;2023-05-14T02:41:24;7.30;99.90
11736;DHT22;5924;51.398;7.088;2023-05-14T02:43:50;7.20;99.90
11736;DHT22;5924;51.398;7.088;2023-05-14T02:46:16;7.20;99.90
11736;DHT22;5924;51.398;7.088;2023-05-14T02:48:41;7.20;99.90
11736;DHT22;5924;51.398;7.088;2023-05-14T02:51:07;7.20;99.90
11736;DHT22;5924;51.398;7.088;2023-05-14T02:53:33;7.20;99.90
11736;DHT22;5924;51.398;7.088;2023-05-14T02:55:59;7.10;99.90
11736;DHT22;5924;51.398;7.088;2023-05-14T02:58:25;7.10;99.90
11736;DHT22;5924;51.398;7.088;2023-05-14T03:00:50;7.10;99.90
11736;DHT22;5924;51.398;7.088;2023-05-14T03:03:18;7.10;99.90
11736;DHT22;5924;51.398;7.088;2023-05-14T03:05:43;7.20;99.90
11736;DHT22;5924;51.398;7.088;2023-05-14T03:08:09;7.10;99.90
11736;DHT22;5924;51.398;7.088;2023-05-14T03:10:35;7.10;99.90
11736;DHT22;5924;51.398;7.088;2023-05-14T03:13:01;7.00;99.90
11736;DHT22;5924;51.398;7.088;2023-05-14T03:15:27;7.00;99.90
11736;DHT22;5924;51.398;7.088;2023-05-14T03:17:53;7.00;99.90
11736;DHT22;5924;51.398;7.088;2023-05-14T03:20:18;7.00;99.90
11736;DHT22;5924;51.398;7.088;2023-05-14T03:22:45;6.90;99.90
11736;DHT22;5924;51.398;7.088;2023-05-14T03:25:10;6.90;99.90
11736;DHT22;5924;51.398;7.088;2023-05-14T03:27:36;6.90;99.90
11736;DHT22;5924;51.398;7.088;2023-05-14T03:30:02;6.80;99.90
11736;DHT22;5924;51.398;7.088;2023-05-14T03:32:28;7.00;99.90
11736;DHT22;5924;51.398;7.088;2023-05-14T03:34:54;6.90;99.90
11736;DHT22;5924;51.398;7.088;2023-05-14T03:37:20;6.90;99.90
11736;DHT22;5924;51.398;7.088;2023-05-14T03:39:46;6.80;99.90
11736;DHT22;5924;51.398;7.088;2023-05-14T03:42:11;6.80;99.90
11736;DHT22;5924;51.398;7.088;2023-05-14T03:44:37;6.80;99.90
11736;DHT22;5924;51.398;7.088;2023-05-14T03:47:03;6.80;99.90
11736;DHT22;5924;51.398;7.088;2023-05-14T03:49:28;7.90;99.90
11736;DHT22;5924;51.398;7.088;2023-05-14T03:51:54;6.80;99.90
11736;DHT22;5924;51.398;7.088;2023-05-14T03:54:20;6.80;99.90
11736;DHT22;5924;51.398;7.088;2023-05-14T03:56:46;6.80;99.90
11736;DHT22;5924;51.398;7.088;2023-05-14T03:59:11;6.80;99.90
11736;DHT22;5924;51.398;7.088;2023-05-14T04:01:37;6.80;99.90
11736;DHT22;5924;51.398;7.088;2023-05-14T04:04:03;6.90;99.90
11736;DHT22;5924;51.398;7.088;2023-05-14T04:06:28;6.80;99.90
11736;DHT22;5924;51.398;7.088;2023-05-14T04:08:54;6.10;99.90
11736;DHT22;5924;51.398;7.088;2023-05-14T04:11:20;6.80;99.90
11736;DHT22;5924;51.398;7.088;2023-05-14T04:13:45;6.90;99.90
11736;DHT22;5924;51.398;7.088;2023-05-14T04:16:11;6.90;99.90
11736;DHT22;5924;51.398;7.088;2023-05-14T04:18:37;6.90;99.90
11736;DHT22;5924;51.398;7.088;2023-05-14T04:21:03;8.80;99.90
11736;DHT22;5924;51.398;7.088;2023-05-14T04:23:28;6.90;99.90
11736;DHT22;5924;51.398;7.088;2023-05-14T04:25:56;6.90;99.90
11736;DHT22;5924;51.398;7.088;2023-05-14T04:28:22;6.90;99.90
11736;DHT22;5924;51.398;7.088;2023-05-14T04:30:48;7.00;99.90
11736;DHT22;5924;51.398;7.088;2023-05-14T04:33:13;7.00;99.90
11736;DHT22;5924;51.398;7.088;2023-05-14T04:35:39;7.00;99.90
11736;DHT22;5924;51.398;7.088;2023-05-14T04:38:05;7.00;99.90
11736;DHT22;5924;51.398;7.088;2023-05-14T04:40:30;7.10;99.90
11736;DHT22;5924;51.398;7.088;2023-05-14T04:42:56;7.10;99.90
11736;DHT22;5924;51.398;7.088;2023-05-14T04:45:22;7.20;99.90
11736;DHT22;5924;51.398;7.088;2023-05-14T04:47:48;7.10;99.90
11736;DHT22;5924;51.398;7.088;2023-05-14T04:50:14;7.20;99.90
11736;DHT22;5924;51.398;7.088;2023-05-14T04:52:40;7.30;99.90
11736;DHT22;5924;51.398;7.088;2023-05-14T04:55:06;7.30;99.90
11736;DHT22;5924;51.398;7.088;2023-05-14T04:57:31;7.30;99.90
11736;DHT22;5924;51.398;7.088;2023-05-14T04:59:57;7.40;99.90
11736;DHT22;5924;51.398;7.088;2023-05-14T05:02:22;7.40;99.90
11736;DHT22;5924;51.398;7.088;2023-05-14T05:04:48;7.40;99.90
11736;DHT22;5924;51.398;7.088;2023-05-14T05:07:14;7.50;99.90
11736;DHT22;5924;51.398;7.088;2023-05-14T05:09:39;7.50;99.90
11736;DHT22;5924;51.398;7.088;2023-05-14T05:12:05;7.50;99.90
11736;DHT22;5924;51.398;7.088;2023-05-14T05:14:31;7.60;99.90
11736;DHT22;5924;51.398;7.088;2023-05-14T05:16:57;7.60;99.90
11736;DHT22;5924;51.398;7.088;2023-05-14T05:19:22;7.60;99.90
11736;DHT22;5924;51.398;7.088;2023-05-14T05:21:48;7.60;99.90
11736;DHT22;5924;51.398;7.088;2023-05-14T05:24:14;7.60;99.90
11736;DHT22;5924;51.398;7.088;2023-05-14T05:26:39;7.60;99.90
11736;DHT22;5924;51.398;7.088;2023-05-14T05:29:06;7.70;99.90
11736;DHT22;5924;51.398;7.088;2023-05-14T05:31:31;7.70;99.90
11736;DHT22;5924;51.398;7.088;2023-05-14T05:34:00;7.80;99.90
11736;DHT22;5924;51.398;7.088;2023-05-14T05:36:26;7.80;99.90
11736;DHT22;5924;51.398;7.088;2023-05-14T05:38:51;7.90;99.90
11736;DHT22;5924;51.398;7.088;2023-05-14T05:41:17;8.00;99.90
11736;DHT22;5924;51.398;7.088;2023-05-14T05:43:43;7.20;99.90
11736;DHT22;5924;51.398;7.088;2023-05-14T05:46:08;8.10;99.90
11736;DHT22;5924;51.398;7.088;2023-05-14T05:48:34;8.20;99.90
11736;DHT22;5924;51.398;7.088;2023-05-14T05:51:00;8.30;99.90
11736;DHT22;5924;51.398;7.088;2023-05-14T05:53:26;8.40;99.90
11736;DHT22;5924;51.398;7.088;2023-05-14T05:55:51;8.50;99.90
11736;DHT22;5924;51.398;7.088;2023-05-14T05:58:18;8.60;99.90
11736;DHT22;5924;51.398;7.088;2023-05-14T06:00:44;8.70;99.90
11736;DHT22;5924;51.398;7.088;2023-05-14T06:03:10;8.80;99.90
11736;DHT22;5924;51.398;7.088;2023-05-14T06:05:36;9.60;99.90
11736;DHT22;5924;51.398;7.088;2023-05-14T06:08:02;7.60;99.90
11736;DHT22;5924;51.398;7.088;2023-05-14T06:10:27;9.10;99.90
11736;DHT22;5924;51.398;7.088;2023-05-14T06:12:53;10.40;99.90
11736;DHT22;5924;51.398;7.088;2023-05-14T06:15:19;9.20;99.90
11736;DHT22;5924;51.398;7.088;2023-05-14T06:17:45;9.30;99.90
11736;DHT22;5924;51.398;7.088;2023-05-14T06:20:11;9.40;99.90
11736;DHT22;5924;51.398;7.088;2023-05-14T06:22:37;9.50;99.90
11736;DHT22;5924;51.398;7.088;2023-05-14T06:25:03;9.60;99.90
11736;DHT22;5924;51.398;7.088;2023-05-14T06:27:28;9.70;99.90
11736;DHT22;5924;51.398;7.088;2023-05-14T06:29:54;9.80;99.90
11736;DHT22;5924;51.398;7.088;2023-05-14T06:32:20;9.90;99.90
11736;DHT22;5924;51.398;7.088;2023-05-14T06:34:46;10.10;99.90
11736;DHT22;5924;51.398;7.088;2023-05-14T06:37:11;10.20;99.90
11736;DHT22;5924;51.398;7.088;2023-05-14T06:39:37;10.30;99.90
11736;DHT22;5924;51.398;7.088;2023-05-14T06:42:03;10.40;99.90
11736;DHT22;5924;51.398;7.088;2023-05-14T06:44:30;10.60;99.90
11736;DHT22;5924;51.398;7.088;2023-05-14T06:46:56;10.70;99.90
11736;DHT22;5924;51.398;7.088;2023-05-14T06:49:21;12.70;99.90
11736;DHT22;5924;51.398;7.088;2023-05-14T06:51:47;11.00;99.90
11736;DHT22;5924;51.398;7.088;2023-05-14T06:54:13;11.20;99.90
11736;DHT22;5924;51.398;7.088;2023-05-14T06:56:38;11.40;99.90
11736;DHT22;5924;51.398;7.088;2023-05-14T06:59:04;11.50;99.90
11736;DHT22;5924;51.398;7.088;2023-05-14T07:01:30;9.90;99.90
11736;DHT22;5924;51.398;7.088;2023-05-14T07:03:56;11.80;99.90
11736;DHT22;5924;51.398;7.088;2023-05-14T07:06:22;11.90;99.90
11736;DHT22;5924;51.398;7.088;2023-05-14T07:08:47;12.10;99.90
11736;DHT22;5924;51.398;7.088;2023-05-14T07:11:13;12.30;99.90
11736;DHT22;5924;51.398;7.088;2023-05-14T07:13:40;12.40;99.90
11736;DHT22;5924;51.398;7.088;2023-05-14T07:16:06;12.50;99.90
11736;DHT22;5924;51.398;7.088;2023-05-14T07:18:34;12.80;99.90
11736;DHT22;5924;51.398;7.088;2023-05-14T07:20:59;12.90;99.90
11736;DHT22;5924;51.398;7.088;2023-05-14T07:23:25;13.10;99.90
11736;DHT22;5924;51.398;7.088;2023-05-14T07:25:51;13.30;99.90
11736;DHT22;5924;51.398;7.088;2023-05-14T07:28:16;13.60;99.90
11736;DHT22;5924;51.398;7.088;2023-05-14T07:30:42;13.80;99.90
11736;DHT22;5924;51.398;7.088;2023-05-14T07:33:07;14.00;99.90
11736;DHT22;5924;51.398;7.088;2023-05-14T07:35:33;14.20;99.90
11736;DHT22;5924;51.398;7.088;2023-05-14T07:37:59;14.40;99.90
11736;DHT22;5924;51.398;7.088;2023-05-14T07:40:24;14.60;99.90
11736;DHT22;5924;51.398;7.088;2023-05-14T07:42:50;14.70;99.90
11736;DHT22;5924;51.398;7.088;2023-05-14T07:45:16;14.80;99.90
11736;DHT22;5924;51.398;7.088;2023-05-14T07:47:41;15.00;99.90
11736;DHT22;5924;51.398;7.088;2023-05-14T07:50:08;15.30;99.90
11736;DHT22;5924;51.398;7.088;2023-05-14T07:52:33;15.50;99.90
11736;DHT22;5924;51.398;7.088;2023-05-14T07:55:01;15.60;99.90
11736;DHT22;5924;51.398;7.088;2023-05-14T07:57:26;15.90;99.90
11736;DHT22;5924;51.398;7.088;2023-05-14T07:59:52;16.10;99.90
11736;DHT22;5924;51.398;7.088;2023-05-14T08:02:18;16.40;99.90
11736;DHT22;5924;51.398;7.088;2023-05-14T08:04:44;16.60;99.90
11736;DHT22;5924;51.398;7.088;2023-05-14T08:07:09;16.70;99.90
11736;DHT22;5924;51.398;7.088;2023-05-14T08:09:35;16.90;99.90
11736;DHT22;5924;51.398;7.088;2023-05-14T08:12:01;17.10;99.90
11736;DHT22;5924;51.398;7.088;2023-05-14T08:14:26;18.00;99.90
11736;DHT22;5924;51.398;7.088;2023-05-14T08:16:53;17.40;99.90
11736;DHT22;5924;51.398;7.088;2023-05-14T08:19:18;17.60;99.90
11736;DHT22;5924;51.398;7.088;2023-05-14T08:21:44;17.70;99.90
11736;DHT22;5924;51.398;7.088;2023-05-14T08:24:10;17.10;99.90
11736;DHT22;5924;51.398;7.088;2023-05-14T08:26:35;17.90;99.90
11736;DHT22;5924;51.398;7.088;2023-05-14T08:29:03;18.10;99.90
11736;DHT22;5924;51.398;7.088;2023-05-14T08:31:28;18.20;99.90
11736;DHT22;5924;51.398;7.088;2023-05-14T08:33:54;18.30;99.90
11736;DHT22;5924;51.398;7.088;2023-05-14T08:36:20;18.40;99.90
11736;DHT22;5924;51.398;7.088;2023-05-14T08:38:45;18.60;99.90
11736;DHT22;5924;51.398;7.088;2023-05-14T08:41:11;18.70;99.90
11736;DHT22;5924;51.398;7.088;2023-05-14T08:43:43;18.80;99.90
11736;DHT22;5924;51.398;7.088;2023-05-14T08:46:12;19.00;99.90
11736;DHT22;5924;51.398;7.088;2023-05-14T08:48:41;19.10;99.90
11736;DHT22;5924;51.398;7.088;2023-05-14T08:51:07;19.20;99.90
11736;DHT22;5924;51.398;7.088;2023-05-14T08:53:33;19.30;99.90
11736;DHT22;5924;51.398;7.088;2023-05-14T08:56:00;19.40;99.90
11736;DHT22;5924;51.398;7.088;2023-05-14T08:58:26;19.40;99.90
11736;DHT22;5924;51.398;7.088;2023-05-14T09:00:53;19.50;99.90
11736;DHT22;5924;51.398;7.088;2023-05-14T09:03:20;19.60;99.90
11736;DHT22;5924;51.398;7.088;2023-05-14T09:05:48;19.70;99.90
11736;DHT22;5924;51.398;7.088;2023-05-14T09:08:16;19.70;99.90
11736;DHT22;5924;51.398;7.088;2023-05-14T09:10:41;19.80;99.90
11736;DHT22;5924;51.398;7.088;2023-05-14T09:13:07;19.80;99.90
11736;DHT22;5924;51.398;7.088;2023-05-14T09:15:35;19.90;99.90
11736;DHT22;5924;51.398;7.088;2023-05-14T09:18:04;20.00;99.90
11736;DHT22;5924;51.398;7.088;2023-05-14T09:20:30;20.10;99.90
11736;DHT22;5924;51.398;7.088;2023-05-14T09:22:57;20.10;99.90
11736;DHT22;5924;51.398;7.088;2023-05-14T09:25:30;20.30;99.90
11736;DHT22;5924;51.398;7.088;2023-05-14T09:27:56;20.40;99.90
11736;DHT22;5924;51.398;7.088;2023-05-14T09:30:23;20.30;99.90
11736;DHT22;5924;51.398;7.088;2023-05-14T09:32:52;20.30;99.90
11736;DHT22;5924;51.398;7.088;2023-05-14T09:35:20;20.50;99.90
11736;DHT22;5924;51.398;7.088;2023-05-14T09:37:51;20.60;99.90
11736;DHT22;5924;51.398;7.088;2023-05-14T09:40:19;20.70;99.90
11736;DHT22;5924;51.398;7.088;2023-05-14T09:42:45;20.80;99.90
11736;DHT22;5924;51.398;7.088;2023-05-14T09:45:10;20.80;99.90
11736;DHT22;5924;51.398;7.088;2023-05-14T09:47:37;20.90;99.90
11736;DHT22;5924;51.398;7.088;2023-05-14T09:50:04;21.00;99.90
11736;DHT22;5924;51.398;7.088;2023-05-14T09:52:30;21.10;99.90
11736;DHT22;5924;51.398;7.088;2023-05-14T09:54:56;22.00;99.90
11736;DHT22;5924;51.398;7.088;2023-05-14T09:57:23;21.10;99.90
11736;DHT22;5924;51.398;7.088;2023-05-14T09:59:48;21.10;99.90
11736;DHT22;5924;51.398;7.088;2023-05-14T10:02:25;21.20;99.90
11736;DHT22;5924;51.398;7.088;2023-05-14T10:04:57;21.30;99.90
11736;DHT22;5924;51.398;7.088;2023-05-14T10:07:47;21.30;99.90
11736;DHT22;5924;51.398;7.088;2023-05-14T10:10:20;21.30;99.90
11736;DHT22;5924;51.398;7.088;2023-05-14T10:13:03;21.40;99.90
11736;DHT22;5924;51.398;7.088;2023-05-14T10:16:12;21.60;99.90
11736;DHT22;5924;51.398;7.088;2023-05-14T10:18:39;21.70;99.90
11736;DHT22;5924;51.398;7.088;2023-05-14T10:21:07;21.70;99.90
11736;DHT22;5924;51.398;7.088;2023-05-14T10:23:36;21.80;99.90
11736;DHT22;5924;51.398;7.088;2023-05-14T10:26:03;21.80;99.90
11736;DHT22;5924;51.398;7.088;2023-05-14T10:28:29;21.80;99.70
11736;DHT22;5924;51.398;7.088;2023-05-14T10:30:56;21.70;98.60
11736;DHT22;5924;51.398;7.088;2023-05-14T10:33:21;21.60;98.50
11736;DHT22;5924;51.398;7.088;2023-05-14T10:36:05;21.70;99.10
11736;DHT22;5924;51.398;7.088;2023-05-14T10:38:35;21.60;95.70
11736;DHT22;5924;51.398;7.088;2023-05-14T10:41:09;21.60;94.90
11736;DHT22;5924;51.398;7.088;2023-05-14T10:43:40;21.50;96.70
11736;DHT22;5924;51.398;7.088;2023-05-14T10:46:07;21.70;97.90
11736;DHT22;5924;51.398;7.088;2023-05-14T10:48:34;21.80;98.20
11736;DHT22;5924;51.398;7.088;2023-05-14T10:51:01;22.00;99.10
11736;DHT22;5924;51.398;7.088;2023-05-14T10:53:49;22.00;98.40
11736;DHT22;5924;51.398;7.088;2023-05-14T10:56:15;22.10;98.40
11736;DHT22;5924;51.398;7.088;2023-05-14T10:58:42;22.30;99.90
11736;DHT22;5924;51.398;7.088;2023-05-14T11:01:10;22.30;99.90
11736;DHT22;5924;51.398;7.088;2023-05-14T11:03:41;22.30;96.50
11736;DHT22;5924;51.398;7.088;2023-05-14T11:06:09;22.20;94.40
11736;DHT22;5924;51.398;7.088;2023-05-14T11:08:36;22.00;94.50
11736;DHT22;5924;51.398;7.088;2023-05-14T11:11:01;22.00;97.30
11736;DHT22;5924;51.398;7.088;2023-05-14T11:13:27;22.20;97.50
11736;DHT22;5924;51.398;7.088;2023-05-14T11:15:53;22.40;98.40
11736;DHT22;5924;51.398;7.088;2023-05-14T11:18:30;22.60;93.50
11736;DHT22;5924;51.398;7.088;2023-05-14T11:20:59;22.50;92.00
11736;DHT22;5924;51.398;7.088;2023-05-14T11:23:25;22.40;93.10
11736;DHT22;5924;51.398;7.088;2023-05-14T11:25:51;22.20;90.60
11736;DHT22;5924;51.398;7.088;2023-05-14T11:28:20;22.30;93.40
11736;DHT22;5924;51.398;7.088;2023-05-14T11:30:47;22.70;93.80
11736;DHT22;5924;51.398;7.088;2023-05-14T11:33:12;22.90;91.70
11736;DHT22;5924;51.398;7.088;2023-05-14T11:35:38;23.00;90.60
11736;DHT22;5924;51.398;7.088;2023-05-14T11:38:04;23.00;88.30
11736;DHT22;5924;51.398;7.088;2023-05-14T11:40:30;23.00;90.20
11736;DHT22;5924;51.398;7.088;2023-05-14T11:42:55;23.20;90.30
11736;DHT22;5924;51.398;7.088;2023-05-14T11:45:26;23.20;90.30
11736;DHT22;5924;51.398;7.088;2023-05-14T11:47:52;23.30;92.10
11736;DHT22;5924;51.398;7.088;2023-05-14T11:50:20;23.30;86.80
11736;DHT22;5924;51.398;7.088;2023-05-14T11:52:46;23.60;89.70
11736;DHT22;5924;51.398;7.088;2023-05-14T11:55:15;23.70;89.40
11736;DHT22;5924;51.398;7.088;2023-05-14T11:57:41;23.30;84.50
11736;DHT22;5924;51.398;7.088;2023-05-14T12:00:10;23.30;82.90
11736;DHT22;5924;51.398;7.088;2023-05-14T12:02:47;23.00;78.60
11736;DHT22;5924;51.398;7.088;2023-05-14T12:05:13;22.40;79.80
11736;DHT22;5924;51.398;7.088;2023-05-14T12:07:39;22.00;79.30
11736;DHT22;5924;51.398;7.088;2023-05-14T12:10:05;21.70;81.50
11736;DHT22;5924;51.398;7.088;2023-05-14T12:12:34;21.70;80.50
11736;DHT22;5924;51.398;7.088;2023-05-14T12:15:01;22.20;81.50
11736;DHT22;5924;51.398;7.088;2023-05-14T12:17:34;23.00;78.70
11736;DHT22;5924;51.398;7.088;2023-05-14T12:20:02;24.00;79.60
11736;DHT22;5924;51.398;7.088;2023-05-14T12:22:28;24.80;78.10
11736;DHT22;5924;51.398;7.088;2023-05-14T12:24:58;25.40;74.10
11736;DHT22;5924;51.398;7.088;2023-05-14T12:27:26;25.80;71.50
11736;DHT22;5924;51.398;7.088;2023-05-14T12:30:03;26.10;68.40
11736;DHT22;5924;51.398;7.088;2023-05-14T12:32:33;26.30;67.00
11736;DHT22;5924;51.398;7.088;2023-05-14T12:34:59;26.80;69.30
11736;DHT22;5924;51.398;7.088;2023-05-14T12:37:25;27.10;74.00
11736;DHT22;5924;51.398;7.088;2023-05-14T12:39:52;27.60;70.50
11736;DHT22;5924;51.398;7.088;2023-05-14T12:42:17;26.70;66.70
11736;DHT22;5924;51.398;7.088;2023-05-14T12:44:43;25.70;67.40
11736;DHT22;5924;51.398;7.088;2023-05-14T12:47:08;24.70;66.00
11736;DHT22;5924;51.398;7.088;2023-05-14T12:49:34;24.30;70.20
11736;DHT22;5924;51.398;7.088;2023-05-14T12:52:00;24.60;71.80
11736;DHT22;5924;51.398;7.088;2023-05-14T12:54:26;25.20;69.30
11736;DHT22;5924;51.398;7.088;2023-05-14T12:56:52;25.90;67.90
11736;DHT22;5924;51.398;7.088;2023-05-14T12:59:17;26.50;66.80
11736;DHT22;5924;51.398;7.088;2023-05-14T13:01:43;27.20;72.10
11736;DHT22;5924;51.398;7.088;2023-05-14T13:04:09;27.60;67.90
11736;DHT22;5924;51.398;7.088;2023-05-14T13:06:38;28.20;67.50
11736;DHT22;5924;51.398;7.088;2023-05-14T13:09:05;28.10;63.90
11736;DHT22;5924;51.398;7.088;2023-05-14T13:11:31;28.60;67.10
11736;DHT22;5924;51.398;7.088;2023-05-14T13:14:00;29.50;65.60
11736;DHT22;5924;51.398;7.088;2023-05-14T13:16:27;29.80;63.10
11736;DHT22;5924;51.398;7.088;2023-05-14T13:18:52;29.30;60.00
11736;DHT22;5924;51.398;7.088;2023-05-14T13:21:18;28.70;58.20
11736;DHT22;5924;51.398;7.088;2023-05-14T13:23:44;28.50;56.90
11736;DHT22;5924;51.398;7.088;2023-05-14T13:26:10;28.20;59.70
11736;DHT22;5924;51.398;7.088;2023-05-14T13:28:36;28.80;61.20
11736;DHT22;5924;51.398;7.088;2023-05-14T13:31:04;28.90;57.20
11736;DHT22;5924;51.398;7.088;2023-05-14T13:33:35;28.90;59.90
11736;DHT22;5924;51.398;7.088;2023-05-14T13:36:02;29.00;60.10
11736;DHT22;5924;51.398;7.088;2023-05-14T13:38:27;29.60;56.70
11736;DHT22;5924;51.398;7.088;2023-05-14T13:40:53;29.80;57.70
11736;DHT22;5924;51.398;7.088;2023-05-14T13:43:24;30.20;55.40
11736;DHT22;5924;51.398;7.088;2023-05-14T13:45:49;29.60;54.00
11736;DHT22;5924;51.398;7.088;2023-05-14T13:48:15;29.30;59.00
11736;DHT22;5924;51.398;7.088;2023-05-14T13:50:41;29.50;56.20
11736;DHT22;5924;51.398;7.088;2023-05-14T13:53:06;29.80;55.20
11736;DHT22;5924;51.398;7.088;2023-05-14T13:55:32;30.10;56.50
11736;DHT22;5924;51.398;7.088;2023-05-14T13:57:58;30.60;57.70
11736;DHT22;5924;51.398;7.088;2023-05-14T14:00:23;31.00;56.20
11736;DHT22;5924;51.398;7.088;2023-05-14T14:02:51;31.20;55.10
11736;DHT22;5924;51.398;7.088;2023-05-14T14:05:17;30.70;53.70
11736;DHT22;5924;51.398;7.088;2023-05-14T14:07:42;29.90;55.50
11736;DHT22;5924;51.398;7.088;2023-05-14T14:10:08;29.70;55.30
11736;DHT22;5924;51.398;7.088;2023-05-14T14:12:34;29.60;53.10
11736;DHT22;5924;51.398;7.088;2023-05-14T14:15:00;29.50;54.60
11736;DHT22;5924;51.398;7.088;2023-05-14T14:17:27;29.10;53.30
11736;DHT22;5924;51.398;7.088;2023-05-14T14:19:52;28.90;55.90
11736;DHT22;5924;51.398;7.088;2023-05-14T14:22:18;29.00;53.10
11736;DHT22;5924;51.398;7.088;2023-05-14T14:24:44;28.70;50.50
11736;DHT22;5924;51.398;7.088;2023-05-14T14:27:10;28.40;51.80
11736;DHT22;5924;51.398;7.088;2023-05-14T14:29:35;28.80;51.90
11736;DHT22;5924;51.398;7.088;2023-05-14T14:32:01;28.60;53.20
11736;DHT22;5924;51.398;7.088;2023-05-14T14:34:27;28.60;54.20
11736;DHT22;5924;51.398;7.088;2023-05-14T14:36:53;28.90;53.10
11736;DHT22;5924;51.398;7.088;2023-05-14T14:39:18;29.10;51.00
11736;DHT22;5924;51.398;7.088;2023-05-14T14:41:44;29.70;52.20
11736;DHT22;5924;51.398;7.088;2023-05-14T14:44:11;30.00;51.60
11736;DHT22;5924;51.398;7.088;2023-05-14T14:46:37;29.60;48.10
11736;DHT22;5924;51.398;7.088;2023-05-14T14:49:03;29.30;45.20
11736;DHT22;5924;51.398;7.088;2023-05-14T14:51:29;29.10;46.50
11736;DHT22;5924;51.398;7.088;2023-05-14T14:53:55;29.20;47.10
11736;DHT22;5924;51.398;7.088;2023-05-14T14:56:21;29.10;46.10
11736;DHT22;5924;51.398;7.088;2023-05-14T14:58:47;28.90;47.70
11736;DHT22;5924;51.398;7.088;2023-05-14T15:01:12;29.30;49.60
11736;DHT22;5924;51.398;7.088;2023-05-14T15:03:38;29.40;47.30
11736;DHT22;5924;51.398;7.088;2023-05-14T15:06:04;29.70;47.80
11736;DHT22;5924;51.398;7.088;2023-05-14T15:08:29;29.80;45.60
11736;DHT22;5924;51.398;7.088;2023-05-14T15:10:55;29.50;47.60
11736;DHT22;5924;51.398;7.088;2023-05-14T15:13:21;29.40;46.20
11736;DHT22;5924;51.398;7.088;2023-05-14T15:15:50;29.10;44.80
11736;DHT22;5924;51.398;7.088;2023-05-14T15:18:16;28.20;47.20
11736;DHT22;5924;51.398;7.088;2023-05-14T15:20:42;27.30;47.50
11736;DHT22;5924;51.398;7.088;2023-05-14T15:23:08;27.40;49.50
11736;DHT22;5924;51.398;7.088;2023-05-14T15:25:35;26.90;51.70
11736;DHT22;5924;51.398;7.088;2023-05-14T15:28:01;26.70;53.50
11736;DHT22;5924;51.398;7.088;2023-05-14T15:30:27;26.40;54.00
11736;DHT22;5924;51.398;7.088;2023-05-14T15:32:53;26.40;54.80
11736;DHT22;5924;51.398;7.088;2023-05-14T15:35:18;26.10;54.30
11736;DHT22;5924;51.398;7.088;2023-05-14T15:37:44;25.90;55.80
11736;DHT22;5924;51.398;7.088;2023-05-14T15:40:10;25.50;55.80
11736;DHT22;5924;51.398;7.088;2023-05-14T15:42:42;25.00;57.20
11736;DHT22;5924;51.398;7.088;2023-05-14T15:45:09;24.20;56.20
11736;DHT22;5924;51.398;7.088;2023-05-14T15:47:36;23.80;59.00
11736;DHT22;5924;51.398;7.088;2023-05-14T15:50:02;23.50;59.20
11736;DHT22;5924;51.398;7.088;2023-05-14T15:52:28;23.40;58.70
11736;DHT22;5924;51.398;7.088;2023-05-14T15:54:54;23.40;58.30
11736;DHT22;5924;51.398;7.088;2023-05-14T15:57:22;23.50;59.10